Time;durP1;ratioP1;P1;durP2;ratioP2;P2;SDS_P1;SDS_P2;PMS_P1;PMS_P2;Temp;Humidity;BMP_temperature;BMP_pressure;BME280_temperature;BME280_humidity;BME280_pressure;Samples;Min_cycle;Max_cycle;Signal;HPM_P1;HPM_P2
2022/12/25 00:00:48;;;;;;;;;;;4.60;99.90;;;;;;4982398;28;20338;-72
2022/12/25 00:03:14;;;;;;;;;;;4.70;99.90;;;;;;4982685;28;19957;-72
2022/12/25 00:05:39;;;;;;;;;;;4.90;99.90;;;;;;4980038;28;20285;-72
2022/12/25 00:08:06;;;;;;;;;;;5.00;99.90;;;;;;4983157;28;20308;-72
2022/12/25 00:10:31;;;;;;;;;;;5.10;99.90;;;;;;4980847;28;19929;-73
2022/12/25 00:12:57;;;;;;;;;;;5.10;99.90;;;;;;4974816;28;19922;-72
2022/12/25 00:15:22;;;;;;;;;;;5.20;99.90;;;;;;4984394;28;20377;-73
2022/12/25 00:17:48;;;;;;;;;;;5.20;99.90;;;;;;4985896;28;19983;-73
2022/12/25 00:20:13;;;;;;;;;;;5.40;99.90;;;;;;4980435;28;19922;-72
2022/12/25 00:22:39;;;;;;;;;;;5.40;99.90;;;;;;4985098;28;19983;-72
2022/12/25 00:25:05;;;;;;;;;;;5.40;99.90;;;;;;4988503;28;19976;-72
2022/12/25 00:27:32;;;;;;;;;;;5.50;99.90;;;;;;4980693;28;20389;-72
2022/12/25 00:29:57;;;;;;;;;;;5.70;99.90;;;;;;4979201;28;20021;-71
2022/12/25 00:32:23;;;;;;;;;;;5.70;99.90;;;;;;4982275;28;20032;-72
2022/12/25 00:34:48;;;;;;;;;;;6.10;99.90;;;;;;4975752;28;19968;-72
2022/12/25 00:37:16;;;;;;;;;;;6.50;99.90;;;;;;4983587;28;20430;-72
2022/12/25 00:39:42;;;;;;;;;;;5.70;99.90;;;;;;4988508;28;19925;-72
2022/12/25 00:42:17;;;;;;;;;;;5.80;99.90;;;;;;4989584;28;19929;-72
2022/12/25 00:44:43;;;;;;;;;;;5.70;99.90;;;;;;4981628;28;19925;-72
2022/12/25 00:47:09;;;;;;;;;;;5.70;99.90;;;;;;4987463;28;19975;-73
2022/12/25 00:49:34;;;;;;;;;;;5.70;99.90;;;;;;4988917;28;19923;-73
2022/12/25 00:52:00;;;;;;;;;;;5.70;99.90;;;;;;4987385;28;19926;-73
2022/12/25 00:54:25;;;;;;;;;;;5.70;99.90;;;;;;4979183;28;19928;-73
2022/12/25 00:56:51;;;;;;;;;;;5.70;99.90;;;;;;4982743;28;19968;-73
2022/12/25 00:59:16;;;;;;;;;;;5.70;99.90;;;;;;4982154;28;19921;-73
2022/12/25 01:01:42;;;;;;;;;;;6.10;99.90;;;;;;4978596;28;19929;-73
2022/12/25 01:04:08;;;;;;;;;;;5.70;99.90;;;;;;4979762;28;19977;-73
2022/12/25 01:06:34;;;;;;;;;;;6.10;99.90;;;;;;4982397;28;19933;-73
2022/12/25 01:11:44;;;;;;;;;;;5.70;99.90;;;;;;4978233;28;19925;-72
2022/12/25 01:14:09;;;;;;;;;;;5.70;99.90;;;;;;4980086;28;19944;-71
2022/12/25 01:16:35;;;;;;;;;;;5.60;99.90;;;;;;4982073;28;19929;-71
2022/12/25 01:19:01;;;;;;;;;;;5.60;99.90;;;;;;4979337;28;19929;-71
2022/12/25 01:21:26;;;;;;;;;;;5.60;99.90;;;;;;4982556;28;19922;-71
2022/12/25 01:23:55;;;;;;;;;;;5.70;99.90;;;;;;4981037;28;19922;-72
2022/12/25 01:26:21;;;;;;;;;;;5.60;99.90;;;;;;4982180;28;19922;-71
2022/12/25 01:28:47;;;;;;;;;;;5.60;99.90;;;;;;4980196;28;19973;-71
2022/12/25 01:31:14;;;;;;;;;;;5.60;99.90;;;;;;4981930;28;19973;-72
2022/12/25 01:33:41;;;;;;;;;;;5.60;99.90;;;;;;4982421;28;19925;-71
2022/12/25 01:36:13;;;;;;;;;;;5.60;99.90;;;;;;4980765;28;20285;-71
2022/12/25 01:38:39;;;;;;;;;;;5.70;99.90;;;;;;4981634;28;19922;-73
2022/12/25 01:41:05;;;;;;;;;;;5.90;99.90;;;;;;4980978;28;19932;-72
2022/12/25 01:43:31;;;;;;;;;;;5.90;99.90;;;;;;4981634;28;19922;-71
2022/12/25 01:45:57;;;;;;;;;;;6.10;99.90;;;;;;4976230;28;20284;-72
2022/12/25 01:48:31;;;;;;;;;;;6.20;99.90;;;;;;4984353;28;20016;-72
2022/12/25 01:51:02;;;;;;;;;;;6.30;99.90;;;;;;4980104;28;19929;-71
2022/12/25 01:53:28;;;;;;;;;;;6.50;99.90;;;;;;4987327;28;19922;-71
2022/12/25 01:55:56;;;;;;;;;;;6.50;99.90;;;;;;4979781;28;20357;-71
2022/12/25 01:58:22;;;;;;;;;;;7.20;99.90;;;;;;4986041;28;19922;-71
2022/12/25 02:00:49;;;;;;;;;;;6.80;99.90;;;;;;4984001;28;20408;-72
2022/12/25 02:03:14;;;;;;;;;;;6.60;99.90;;;;;;4983262;28;20017;-73
2022/12/25 02:05:40;;;;;;;;;;;6.70;99.90;;;;;;4985060;28;20004;-72
2022/12/25 02:08:10;;;;;;;;;;;6.60;99.90;;;;;;4984684;28;20321;-71
2022/12/25 02:10:35;;;;;;;;;;;6.60;99.90;;;;;;4983927;28;20313;-71
2022/12/25 02:13:01;;;;;;;;;;;6.70;99.90;;;;;;4982314;28;19930;-71
2022/12/25 02:15:30;;;;;;;;;;;6.70;99.90;;;;;;4982753;28;20421;-73
2022/12/25 02:17:59;;;;;;;;;;;6.70;99.90;;;;;;4981996;28;19922;-71
2022/12/25 02:20:34;;;;;;;;;;;6.80;99.90;;;;;;4986161;28;19929;-71
2022/12/25 02:23:12;;;;;;;;;;;6.80;99.90;;;;;;4981335;28;19953;-72
2022/12/25 02:25:37;;;;;;;;;;;6.80;99.90;;;;;;4984654;28;19922;-72
2022/12/25 02:28:12;;;;;;;;;;;7.10;99.90;;;;;;4983352;28;19922;-72
2022/12/25 02:30:41;;;;;;;;;;;6.90;99.90;;;;;;4983894;28;19975;-70
2022/12/25 02:36:08;;;;;;;;;;;7.00;99.90;;;;;;4982794;28;19922;-72
2022/12/25 02:39:56;;;;;;;;;;;7.00;99.90;;;;;;4982812;28;20315;-71
2022/12/25 02:41:31;;;;;;;;;;;7.10;99.90;;;;;;4984502;28;19976;-71
2022/12/25 03:08:49;;;;;;;;;;;7.70;99.90;;;;;;4993608;28;20365;-72
2022/12/25 03:11:30;;;;;;;;;;;7.70;99.90;;;;;;4983744;28;19949;-72
2022/12/25 03:16:49;;;;;;;;;;;7.70;99.90;;;;;;4981961;28;20012;-72
2022/12/25 03:16:51;;;;;;;;;;;7.80;99.90;;;;;;4978556;28;19933;-72
2022/12/25 03:27:32;;;;;;;;;;;7.80;99.90;;;;;;4997808;28;20012;-71
2022/12/25 03:32:46;;;;;;;;;;;7.90;99.90;;;;;;4992502;28;19922;-71
2022/12/25 03:35:21;;;;;;;;;;;8.60;99.90;;;;;;4984361;28;19925;-71
2022/12/25 04:36:12;;;;;;;;;;;8.30;99.90;;;;;;4993465;28;19930;-71
2022/12/25 04:38:39;;;;;;;;;;;8.40;99.90;;;;;;4982942;28;19949;-72
2022/12/25 04:41:04;;;;;;;;;;;8.30;99.90;;;;;;4976100;28;20021;-71
2022/12/25 04:43:30;;;;;;;;;;;8.60;99.90;;;;;;4983133;28;20013;-72
2022/12/25 04:45:56;;;;;;;;;;;8.20;99.90;;;;;;4979287;28;19945;-71
2022/12/25 04:48:22;;;;;;;;;;;8.80;99.90;;;;;;4982209;28;19917;-72
2022/12/25 04:50:47;;;;;;;;;;;9.00;99.90;;;;;;4981368;28;20270;-72
2022/12/25 04:53:13;;;;;;;;;;;8.20;99.90;;;;;;4981203;28;19989;-72
2022/12/25 04:55:39;;;;;;;;;;;8.20;99.90;;;;;;4982606;28;19928;-72
2022/12/25 04:58:04;;;;;;;;;;;8.30;99.90;;;;;;4979982;28;19958;-71
2022/12/25 05:00:30;;;;;;;;;;;8.40;99.90;;;;;;4983202;28;20012;-71
2022/12/25 05:02:56;;;;;;;;;;;8.30;99.90;;;;;;4979288;28;19922;-72
2022/12/25 05:05:22;;;;;;;;;;;8.80;99.90;;;;;;4983604;28;19977;-72
2022/12/25 05:07:47;;;;;;;;;;;8.40;99.90;;;;;;4979544;28;19922;-71
2022/12/25 05:10:13;;;;;;;;;;;8.70;99.90;;;;;;4980011;28;20370;-70
2022/12/25 05:12:38;;;;;;;;;;;8.30;99.90;;;;;;4982095;28;19922;-71
2022/12/25 05:15:04;;;;;;;;;;;8.40;99.90;;;;;;4981427;28;19918;-71
2022/12/25 05:17:29;;;;;;;;;;;8.50;99.90;;;;;;4983604;28;19922;-71
2022/12/25 05:19:55;;;;;;;;;;;8.40;99.90;;;;;;4980202;28;19926;-71
2022/12/25 05:22:20;;;;;;;;;;;8.70;99.90;;;;;;4982136;28;19929;-71
2022/12/25 05:24:46;;;;;;;;;;;8.40;99.90;;;;;;4984937;28;20393;-71
2022/12/25 05:27:11;;;;;;;;;;;8.40;99.90;;;;;;4983866;28;19926;-71
2022/12/25 05:29:37;;;;;;;;;;;8.50;99.90;;;;;;4983108;28;19930;-71
2022/12/25 05:32:02;;;;;;;;;;;8.40;99.90;;;;;;4983881;28;19926;-70
2022/12/25 05:34:28;;;;;;;;;;;8.30;99.90;;;;;;4985675;28;19933;-71
2022/12/25 05:36:55;;;;;;;;;;;8.30;99.90;;;;;;4982912;28;19965;-71
2022/12/25 05:39:21;;;;;;;;;;;8.30;99.90;;;;;;4987098;28;20451;-71
2022/12/25 05:42:04;;;;;;;;;;;8.40;99.90;;;;;;4980833;28;19922;-70
2022/12/25 05:44:30;;;;;;;;;;;8.30;99.90;;;;;;4983997;28;20412;-71
2022/12/25 05:46:55;;;;;;;;;;;8.30;99.90;;;;;;4984390;28;19966;-70
2022/12/25 05:49:21;;;;;;;;;;;8.40;99.90;;;;;;4985350;28;20348;-72
2022/12/25 05:51:46;;;;;;;;;;;8.40;99.90;;;;;;4982279;28;19929;-71
2022/12/25 05:54:12;;;;;;;;;;;8.40;99.90;;;;;;4984783;28;20015;-72
2022/12/25 05:56:37;;;;;;;;;;;8.40;99.90;;;;;;4980568;28;20566;-72
2022/12/25 05:59:03;;;;;;;;;;;8.70;99.90;;;;;;4985023;28;19922;-72
2022/12/25 06:01:29;;;;;;;;;;;8.30;99.90;;;;;;4983681;28;19969;-71
2022/12/25 06:03:55;;;;;;;;;;;9.00;99.90;;;;;;4981495;28;19926;-71
2022/12/25 06:06:20;;;;;;;;;;;8.20;99.90;;;;;;4983511;28;19921;-70
2022/12/25 06:08:46;;;;;;;;;;;8.30;99.90;;;;;;4982157;28;19926;-72
2022/12/25 06:11:12;;;;;;;;;;;8.30;99.90;;;;;;4982778;28;20424;-71
2022/12/25 06:13:38;;;;;;;;;;;8.90;99.90;;;;;;4984484;28;19922;-72
2022/12/25 06:16:04;;;;;;;;;;;8.30;99.90;;;;;;4983466;28;19922;-70
2022/12/25 06:18:30;;;;;;;;;;;8.10;99.90;;;;;;4980136;28;19988;-71
2022/12/25 06:20:55;;;;;;;;;;;8.20;99.90;;;;;;4981642;28;19930;-71
2022/12/25 06:23:21;;;;;;;;;;;8.10;99.90;;;;;;4985880;28;19922;-71
2022/12/25 06:25:46;;;;;;;;;;;8.10;99.90;;;;;;4980468;28;19927;-71
2022/12/25 06:28:12;;;;;;;;;;;8.20;99.90;;;;;;4983982;28;19917;-71
2022/12/25 06:30:37;;;;;;;;;;;8.10;99.90;;;;;;4983296;28;19926;-71
2022/12/25 06:33:03;;;;;;;;;;;8.10;99.90;;;;;;4983776;28;20036;-71
2022/12/25 06:35:28;;;;;;;;;;;8.00;99.90;;;;;;4982625;28;19921;-71
2022/12/25 06:37:55;;;;;;;;;;;8.10;99.90;;;;;;4983350;28;19918;-72
2022/12/25 06:40:20;;;;;;;;;;;8.10;99.90;;;;;;4982386;28;19928;-72
2022/12/25 06:42:46;;;;;;;;;;;8.10;99.90;;;;;;4982219;28;19922;-71
2022/12/25 06:45:12;;;;;;;;;;;8.10;99.90;;;;;;4983545;28;19952;-71
2022/12/25 06:47:37;;;;;;;;;;;8.10;99.90;;;;;;4980043;28;19922;-72
2022/12/25 06:50:06;;;;;;;;;;;8.10;99.90;;;;;;4979018;28;20344;-71
2022/12/25 06:52:32;;;;;;;;;;;8.10;99.90;;;;;;4981030;28;19922;-72
2022/12/25 06:54:57;;;;;;;;;;;8.90;99.90;;;;;;4946436;28;1076371;-71
2022/12/25 06:57:23;;;;;;;;;;;8.10;99.90;;;;;;4983454;28;20428;-71
2022/12/25 06:59:48;;;;;;;;;;;8.20;99.90;;;;;;4981967;28;20392;-71
2022/12/25 07:02:18;;;;;;;;;;;8.90;99.90;;;;;;4985077;28;19976;-71
2022/12/25 07:04:44;;;;;;;;;;;8.30;99.90;;;;;;4980375;28;19928;-71
2022/12/25 07:07:10;;;;;;;;;;;8.30;99.90;;;;;;4982620;28;19922;-70
2022/12/25 07:09:37;;;;;;;;;;;8.30;99.90;;;;;;4985459;28;20289;-71
2022/12/25 07:12:04;;;;;;;;;;;9.00;99.90;;;;;;4975721;28;20389;-72
2022/12/25 07:14:29;;;;;;;;;;;8.30;99.90;;;;;;4982957;28;19971;-72
2022/12/25 07:16:55;;;;;;;;;;;8.40;99.90;;;;;;4977254;28;20024;-71
2022/12/25 07:19:21;;;;;;;;;;;8.40;99.90;;;;;;4981630;28;19921;-71
2022/12/25 07:21:46;;;;;;;;;;;8.30;99.90;;;;;;4981759;28;19921;-70
2022/12/25 07:24:16;;;;;;;;;;;9.00;99.90;;;;;;4982015;28;20286;-71
2022/12/25 07:26:42;;;;;;;;;;;8.40;99.90;;;;;;4981264;28;19922;-71
2022/12/25 07:29:07;;;;;;;;;;;8.50;99.90;;;;;;4980786;28;19953;-71
2022/12/25 07:31:33;;;;;;;;;;;8.50;99.90;;;;;;4980588;28;20041;-72
2022/12/25 07:33:58;;;;;;;;;;;8.50;99.90;;;;;;4978203;28;19926;-73
2022/12/25 07:36:24;;;;;;;;;;;8.50;99.90;;;;;;4983434;28;19922;-71
2022/12/25 07:38:49;;;;;;;;;;;8.60;99.90;;;;;;4981587;28;19937;-71
2022/12/25 07:41:15;;;;;;;;;;;8.70;99.90;;;;;;4979781;28;19930;-71
2022/12/25 07:43:41;;;;;;;;;;;8.60;99.90;;;;;;4982688;28;20000;-76
2022/12/25 07:46:06;;;;;;;;;;;8.60;99.90;;;;;;4981070;28;19928;-71
2022/12/25 07:48:32;;;;;;;;;;;8.70;99.90;;;;;;4979088;28;19933;-72
2022/12/25 07:50:59;;;;;;;;;;;8.70;99.90;;;;;;4969400;28;20830;-74
2022/12/25 07:53:26;;;;;;;;;;;9.20;99.90;;;;;;4982375;28;19933;-72
2022/12/25 07:56:06;;;;;;;;;;;8.60;99.90;;;;;;4981788;28;19969;-72
2022/12/25 07:58:33;;;;;;;;;;;8.60;99.90;;;;;;4979991;28;20021;-72
2022/12/25 08:01:05;;;;;;;;;;;8.60;99.90;;;;;;4980902;28;20397;-72
2022/12/25 08:03:31;;;;;;;;;;;8.50;99.90;;;;;;4978318;28;20543;-72
2022/12/25 08:05:59;;;;;;;;;;;8.60;99.90;;;;;;4980920;28;19928;-73
2022/12/25 08:08:24;;;;;;;;;;;8.50;99.90;;;;;;4982265;28;19925;-71
2022/12/25 08:10:50;;;;;;;;;;;8.60;99.90;;;;;;4982642;28;19921;-71
2022/12/25 08:13:15;;;;;;;;;;;9.30;99.90;;;;;;4981754;28;19930;-73
2022/12/25 08:15:41;;;;;;;;;;;8.50;99.90;;;;;;4983261;28;20108;-73
2022/12/25 08:18:06;;;;;;;;;;;8.50;99.90;;;;;;4971279;28;20369;-72
2022/12/25 08:20:32;;;;;;;;;;;8.50;99.90;;;;;;4982099;28;19922;-72
2022/12/25 08:22:58;;;;;;;;;;;8.40;99.90;;;;;;4983093;28;20637;-73
2022/12/25 08:25:23;;;;;;;;;;;8.40;99.90;;;;;;4980083;28;20309;-74
2022/12/25 08:27:49;;;;;;;;;;;8.50;99.90;;;;;;4979208;28;19926;-73
2022/12/25 08:30:14;;;;;;;;;;;8.40;99.90;;;;;;4984122;28;19922;-72
2022/12/25 08:32:40;;;;;;;;;;;8.40;99.90;;;;;;4980589;28;19918;-75
2022/12/25 08:35:06;;;;;;;;;;;8.40;99.90;;;;;;4979851;28;19929;-71
2022/12/25 08:37:31;;;;;;;;;;;8.30;99.90;;;;;;4973970;28;19922;-74
2022/12/25 08:39:57;;;;;;;;;;;8.90;99.90;;;;;;4977218;28;19922;-77
2022/12/25 08:42:22;;;;;;;;;;;9.10;99.90;;;;;;4979151;28;19929;-72
2022/12/25 08:44:48;;;;;;;;;;;8.20;99.90;;;;;;4977106;28;19930;-74
2022/12/25 08:47:13;;;;;;;;;;;8.20;99.90;;;;;;4982569;28;19968;-71
2022/12/25 08:49:39;;;;;;;;;;;8.10;99.90;;;;;;4981530;28;19938;-71
2022/12/25 08:52:05;;;;;;;;;;;8.20;99.90;;;;;;4981669;28;19922;-75
2022/12/25 08:54:32;;;;;;;;;;;8.30;99.90;;;;;;4978403;28;19922;-73
2022/12/25 08:56:58;;;;;;;;;;;8.30;99.90;;;;;;4982931;28;19922;-73
2022/12/25 08:59:23;;;;;;;;;;;8.40;99.90;;;;;;4982558;28;20298;-72
2022/12/25 09:01:49;;;;;;;;;;;8.40;99.90;;;;;;4983892;28;19922;-73
2022/12/25 09:04:14;;;;;;;;;;;8.40;99.90;;;;;;4985605;28;19926;-74
2022/12/25 09:06:40;;;;;;;;;;;8.40;99.90;;;;;;4983843;28;19930;-79
2022/12/25 09:09:05;;;;;;;;;;;8.40;99.90;;;;;;4986991;28;19984;-74
2022/12/25 09:11:31;;;;;;;;;;;8.40;99.90;;;;;;4984495;28;19928;-75
2022/12/25 09:13:59;;;;;;;;;;;8.50;99.90;;;;;;4985810;28;19922;-76
2022/12/25 09:16:25;;;;;;;;;;;8.40;99.90;;;;;;4986250;28;19944;-76
2022/12/25 09:18:50;;;;;;;;;;;8.50;99.90;;;;;;4980045;28;19936;-76
2022/12/25 09:21:16;;;;;;;;;;;8.50;99.90;;;;;;4986333;28;20008;-75
2022/12/25 09:23:41;;;;;;;;;;;8.60;99.90;;;;;;4987369;28;19929;-75
2022/12/25 09:26:09;;;;;;;;;;;8.60;99.90;;;;;;4984421;28;19918;-76
2022/12/25 09:28:37;;;;;;;;;;;9.00;99.90;;;;;;4986111;28;19926;-87
2022/12/25 09:31:03;;;;;;;;;;;8.60;99.90;;;;;;4983138;28;19933;-80
2022/12/25 09:33:28;;;;;;;;;;;8.60;99.90;;;;;;4984537;28;19921;-80
2022/12/25 09:35:55;;;;;;;;;;;9.40;99.90;;;;;;4985297;28;19972;-76
2022/12/25 09:38:21;;;;;;;;;;;8.80;99.90;;;;;;4983791;28;19929;-77
2022/12/25 09:40:46;;;;;;;;;;;8.80;99.90;;;;;;4984006;28;19922;-78
2022/12/25 09:43:15;;;;;;;;;;;8.60;99.90;;;;;;4983545;28;19944;-79
2022/12/25 09:45:41;;;;;;;;;;;8.60;99.90;;;;;;4985879;28;19922;-77
2022/12/25 09:48:11;;;;;;;;;;;8.70;99.90;;;;;;4982549;28;19922;-81
2022/12/25 09:50:36;;;;;;;;;;;8.70;99.90;;;;;;4986296;28;20358;-80
2022/12/25 09:53:07;;;;;;;;;;;8.70;99.90;;;;;;4980758;28;19929;-79
2022/12/25 09:55:37;;;;;;;;;;;8.70;99.90;;;;;;4983120;28;20704;-75
2022/12/25 09:58:08;;;;;;;;;;;8.60;99.90;;;;;;4985965;28;19964;-80
2022/12/25 10:00:37;;;;;;;;;;;8.70;99.90;;;;;;4979866;28;19932;-73
2022/12/25 10:03:14;;;;;;;;;;;8.80;99.90;;;;;;4974144;28;19934;-81
2022/12/25 10:05:50;;;;;;;;;;;8.70;99.90;;;;;;4976689;28;19926;-74
2022/12/25 10:08:33;;;;;;;;;;;8.80;99.90;;;;;;4981741;28;19926;-75
2022/12/25 10:11:05;;;;;;;;;;;8.70;99.90;;;;;;4988236;28;19926;-75
2022/12/25 10:13:46;;;;;;;;;;;8.80;99.90;;;;;;4973929;28;19918;-75
2022/12/25 10:16:34;;;;;;;;;;;8.70;99.90;;;;;;4980285;28;19921;-75
2022/12/25 10:19:18;;;;;;;;;;;8.60;99.90;;;;;;4982697;28;19926;-76
2022/12/25 10:21:44;;;;;;;;;;;8.70;99.90;;;;;;4983377;28;19929;-77
2022/12/25 10:24:28;;;;;;;;;;;8.70;99.90;;;;;;4980638;28;19958;-80
2022/12/25 10:26:55;;;;;;;;;;;8.70;99.90;;;;;;4982465;28;19929;-74
2022/12/25 10:29:20;;;;;;;;;;;8.90;99.90;;;;;;4983740;28;19926;-77
2022/12/25 10:31:47;;;;;;;;;;;8.90;99.90;;;;;;4983267;28;19970;-78
2022/12/25 10:34:13;;;;;;;;;;;8.80;99.90;;;;;;4984430;28;19976;-75
2022/12/25 10:36:40;;;;;;;;;;;9.30;99.90;;;;;;4988127;28;19930;-76
2022/12/25 10:39:05;;;;;;;;;;;8.80;99.90;;;;;;4983719;28;19925;-74
2022/12/25 10:41:50;;;;;;;;;;;8.80;99.90;;;;;;4985332;28;19945;-72
2022/12/25 10:44:19;;;;;;;;;;;8.70;99.90;;;;;;4983885;28;19922;-73
2022/12/25 10:46:53;;;;;;;;;;;8.90;99.90;;;;;;4979423;28;19918;-73
2022/12/25 10:49:19;;;;;;;;;;;8.90;99.90;;;;;;4983452;28;20435;-70
2022/12/25 10:51:45;;;;;;;;;;;8.90;99.90;;;;;;4985692;28;20297;-70
2022/12/25 10:54:27;;;;;;;;;;;9.10;99.90;;;;;;4987710;28;19921;-71
2022/12/25 10:56:53;;;;;;;;;;;8.80;99.90;;;;;;4987507;28;19948;-71
2022/12/25 10:59:18;;;;;;;;;;;8.90;99.90;;;;;;4981745;28;20001;-71
2022/12/25 11:01:44;;;;;;;;;;;8.80;99.90;;;;;;4982000;28;19922;-71
2022/12/25 11:04:17;;;;;;;;;;;8.80;99.90;;;;;;4984332;28;19921;-71
2022/12/25 11:06:42;;;;;;;;;;;8.90;99.90;;;;;;4981083;28;19922;-71
2022/12/25 11:09:14;;;;;;;;;;;9.00;99.90;;;;;;4982367;28;20263;-70
2022/12/25 11:11:43;;;;;;;;;;;9.00;99.90;;;;;;4998559;28;19921;-71
2022/12/25 11:14:14;;;;;;;;;;;9.00;99.90;;;;;;4983837;28;19929;-72
2022/12/25 11:16:42;;;;;;;;;;;9.10;99.90;;;;;;4983614;28;19921;-73
2022/12/25 11:19:37;;;;;;;;;;;8.80;99.90;;;;;;4982823;28;19932;-70
2022/12/25 11:22:05;;;;;;;;;;;8.90;99.90;;;;;;4967837;28;20286;-71
2022/12/25 11:24:31;;;;;;;;;;;8.90;99.90;;;;;;4982441;28;19922;-71
2022/12/25 11:26:59;;;;;;;;;;;9.00;99.90;;;;;;4984723;28;19949;-72
2022/12/25 11:29:43;;;;;;;;;;;9.00;99.90;;;;;;4978758;28;19922;-71
2022/12/25 11:32:17;;;;;;;;;;;9.00;99.90;;;;;;4982468;28;19922;-71
2022/12/25 11:34:45;;;;;;;;;;;9.10;99.90;;;;;;4978824;28;19926;-72
2022/12/25 11:37:15;;;;;;;;;;;9.10;99.90;;;;;;4985971;28;19922;-72
2022/12/25 11:39:43;;;;;;;;;;;9.10;99.90;;;;;;4980911;28;20382;-72
2022/12/25 11:42:21;;;;;;;;;;;9.30;99.90;;;;;;4982729;28;19921;-73
2022/12/25 11:44:50;;;;;;;;;;;9.10;99.90;;;;;;4977230;28;19922;-74
2022/12/25 11:47:22;;;;;;;;;;;9.00;99.90;;;;;;4983028;28;19929;-71
2022/12/25 11:49:51;;;;;;;;;;;9.00;99.90;;;;;;4977116;28;19926;-70
2022/12/25 11:52:16;;;;;;;;;;;9.10;99.90;;;;;;4983084;28;20068;-74
2022/12/25 11:54:49;;;;;;;;;;;9.10;99.90;;;;;;4980137;28;20017;-72
2022/12/25 11:57:14;;;;;;;;;;;9.10;99.90;;;;;;4997999;28;19921;-73
2022/12/25 11:59:46;;;;;;;;;;;9.10;99.90;;;;;;4977160;28;19945;-74
2022/12/25 12:02:25;;;;;;;;;;;9.10;99.90;;;;;;4982657;28;19933;-75
2022/12/25 12:05:12;;;;;;;;;;;9.10;99.90;;;;;;4979199;28;19981;-75
2022/12/25 12:07:45;;;;;;;;;;;9.10;99.90;;;;;;4978393;28;19922;-77
2022/12/25 12:10:18;;;;;;;;;;;9.30;99.90;;;;;;4964216;28;19922;-75
2022/12/25 12:12:43;;;;;;;;;;;9.20;99.90;;;;;;4981897;28;20417;-76
2022/12/25 12:15:28;;;;;;;;;;;9.30;99.90;;;;;;4983530;28;19921;-79
2022/12/25 12:17:53;;;;;;;;;;;9.30;99.90;;;;;;4977814;28;19925;-80
2022/12/25 12:20:26;;;;;;;;;;;9.50;99.90;;;;;;4981723;28;20396;-74
2022/12/25 12:22:52;;;;;;;;;;;9.40;99.90;;;;;;4978910;28;19947;-76
2022/12/25 12:25:18;;;;;;;;;;;9.30;99.90;;;;;;4981353;28;19922;-73
2022/12/25 12:27:44;;;;;;;;;;;9.40;99.90;;;;;;4983810;28;20373;-80
2022/12/25 12:30:30;;;;;;;;;;;9.50;99.90;;;;;;4980366;28;19924;-74
2022/12/25 12:32:58;;;;;;;;;;;9.40;99.90;;;;;;4996336;28;19928;-74
2022/12/25 12:35:29;;;;;;;;;;;9.40;99.90;;;;;;4980806;28;19977;-72
2022/12/25 12:37:56;;;;;;;;;;;9.50;99.90;;;;;;4982348;28;19922;-72
2022/12/25 12:40:28;;;;;;;;;;;9.50;99.90;;;;;;4979210;28;19976;-73
2022/12/25 12:42:53;;;;;;;;;;;9.40;99.90;;;;;;4972867;28;20009;-73
2022/12/25 12:45:24;;;;;;;;;;;9.40;99.90;;;;;;4976667;28;20301;-74
2022/12/25 12:47:50;;;;;;;;;;;9.40;99.90;;;;;;4981856;28;19928;-74
2022/12/25 12:50:34;;;;;;;;;;;9.40;99.90;;;;;;4977200;28;19929;-73
2022/12/25 12:53:14;;;;;;;;;;;9.40;99.90;;;;;;4978286;28;20333;-73
2022/12/25 12:55:40;;;;;;;;;;;9.30;99.90;;;;;;4983461;28;19925;-74
2022/12/25 12:58:05;;;;;;;;;;;9.30;99.90;;;;;;4980774;28;19929;-74
2022/12/25 13:00:37;;;;;;;;;;;9.30;99.90;;;;;;4982214;28;19972;-74
2022/12/25 13:03:06;;;;;;;;;;;9.20;99.90;;;;;;4977117;28;19942;-74
2022/12/25 13:05:50;;;;;;;;;;;9.20;99.90;;;;;;4979184;28;20388;-73
2022/12/25 13:08:18;;;;;;;;;;;9.20;99.90;;;;;;4979366;28;19944;-74
2022/12/25 13:10:47;;;;;;;;;;;9.20;99.90;;;;;;4982885;28;20011;-74
2022/12/25 13:13:19;;;;;;;;;;;9.30;99.90;;;;;;4981440;28;19922;-73
2022/12/25 13:15:45;;;;;;;;;;;9.30;99.90;;;;;;4978159;28;19929;-74
2022/12/25 13:18:12;;;;;;;;;;;9.40;99.90;;;;;;4982211;28;19976;-74
2022/12/25 13:20:37;;;;;;;;;;;9.20;99.90;;;;;;4979251;28;20345;-74
2022/12/25 13:23:22;;;;;;;;;;;9.20;99.90;;;;;;4982571;28;19926;-74
2022/12/25 13:25:51;;;;;;;;;;;9.10;99.90;;;;;;4978861;28;19932;-74
2022/12/25 13:28:22;;;;;;;;;;;9.20;99.90;;;;;;4982070;28;19922;-74
2022/12/25 13:30:48;;;;;;;;;;;9.10;99.90;;;;;;4980004;28;20283;-74
2022/12/25 13:33:15;;;;;;;;;;;9.10;99.90;;;;;;4981220;28;20013;-74
2022/12/25 13:35:42;;;;;;;;;;;9.20;99.90;;;;;;4982327;28;20001;-74
2022/12/25 13:38:17;;;;;;;;;;;9.10;99.90;;;;;;4981114;28;19922;-74
2022/12/25 13:43:39;;;;;;;;;;;9.20;99.90;;;;;;4995344;28;19922;-74
2022/12/25 13:46:05;;;;;;;;;;;9.20;99.90;;;;;;4983691;28;19985;-74
2022/12/25 13:48:30;;;;;;;;;;;9.20;99.90;;;;;;4989121;28;20337;-74
2022/12/25 13:50:58;;;;;;;;;;;9.20;99.90;;;;;;4988200;28;19991;-74
2022/12/25 13:53:26;;;;;;;;;;;9.20;99.90;;;;;;4983553;28;19984;-74
2022/12/25 13:55:53;;;;;;;;;;;9.20;99.90;;;;;;4986401;28;19922;-74
2022/12/25 13:58:24;;;;;;;;;;;9.20;99.90;;;;;;4986013;28;19930;-74
2022/12/25 14:00:54;;;;;;;;;;;9.10;99.90;;;;;;4983792;28;19921;-74
2022/12/25 14:03:27;;;;;;;;;;;9.10;99.90;;;;;;4986590;28;19973;-74
2022/12/25 14:06:03;;;;;;;;;;;9.10;99.90;;;;;;4979705;28;19980;-74
2022/12/25 14:08:32;;;;;;;;;;;9.10;99.90;;;;;;4982030;28;19977;-74
2022/12/25 14:11:02;;;;;;;;;;;9.10;99.90;;;;;;4985640;28;20303;-74
2022/12/25 14:13:29;;;;;;;;;;;9.00;99.90;;;;;;4982334;28;19977;-75
2022/12/25 14:15:55;;;;;;;;;;;9.10;99.90;;;;;;4984980;28;20011;-74
2022/12/25 14:18:22;;;;;;;;;;;9.00;99.90;;;;;;4981678;28;20017;-74
2022/12/25 14:21:01;;;;;;;;;;;9.00;99.90;;;;;;4983595;28;19926;-74
2022/12/25 14:23:32;;;;;;;;;;;9.10;99.90;;;;;;4984452;28;19925;-74
2022/12/25 14:25:57;;;;;;;;;;;9.80;99.90;;;;;;4982203;28;19928;-74
2022/12/25 14:28:25;;;;;;;;;;;9.00;99.90;;;;;;4985222;28;20355;-74
2022/12/25 14:30:51;;;;;;;;;;;9.10;99.90;;;;;;4977898;28;19922;-74
2022/12/25 14:33:19;;;;;;;;;;;9.10;99.90;;;;;;4985672;28;20000;-74
2022/12/25 14:35:46;;;;;;;;;;;9.20;99.90;;;;;;4985993;28;19984;-74
2022/12/25 14:38:20;;;;;;;;;;;9.20;99.90;;;;;;4983113;28;19926;-74
2022/12/25 14:40:46;;;;;;;;;;;9.70;99.90;;;;;;4985405;28;20024;-74
2022/12/25 14:43:20;;;;;;;;;;;9.10;99.90;;;;;;4981910;28;20029;-74
2022/12/25 14:45:52;;;;;;;;;;;9.00;99.90;;;;;;4982954;28;20004;-74
2022/12/25 14:48:22;;;;;;;;;;;9.60;99.90;;;;;;4982062;28;20305;-73
2022/12/25 14:51:14;;;;;;;;;;;9.00;99.90;;;;;;4978205;28;19926;-73
2022/12/25 14:53:45;;;;;;;;;;;8.90;99.90;;;;;;4981468;28;19929;-73
2022/12/25 14:56:15;;;;;;;;;;;8.90;99.90;;;;;;4982304;28;19976;-73
2022/12/25 14:58:42;;;;;;;;;;;9.00;99.90;;;;;;4985177;28;20393;-73
2022/12/25 15:01:18;;;;;;;;;;;9.10;99.90;;;;;;4983112;28;19922;-74
2022/12/25 15:03:43;;;;;;;;;;;9.60;99.90;;;;;;4985323;28;19929;-73
2022/12/25 15:06:19;;;;;;;;;;;9.20;99.90;;;;;;4982485;28;20392;-73
2022/12/25 15:08:55;;;;;;;;;;;9.00;99.90;;;;;;4980250;28;19921;-73
2022/12/25 15:11:24;;;;;;;;;;;9.00;99.90;;;;;;4979720;28;19993;-73
2022/12/25 15:13:49;;;;;;;;;;;9.00;99.90;;;;;;4984284;28;19922;-74
2022/12/25 15:16:20;;;;;;;;;;;8.90;99.90;;;;;;4980217;28;19921;-74
2022/12/25 15:18:46;;;;;;;;;;;9.10;99.90;;;;;;4982399;28;19928;-74
2022/12/25 15:21:16;;;;;;;;;;;8.80;99.90;;;;;;4984932;28;19928;-74
2022/12/25 15:23:42;;;;;;;;;;;8.80;99.90;;;;;;4981353;28;19929;-74
2022/12/25 15:26:14;;;;;;;;;;;8.70;99.90;;;;;;4983339;28;19921;-74
2022/12/25 15:28:40;;;;;;;;;;;8.80;99.90;;;;;;4983515;28;19921;-74
2022/12/25 15:31:16;;;;;;;;;;;8.80;99.90;;;;;;4984088;28;19928;-74
2022/12/25 15:33:42;;;;;;;;;;;8.70;99.90;;;;;;4977669;28;20400;-75
2022/12/25 15:36:08;;;;;;;;;;;8.70;99.90;;;;;;4985531;28;19918;-74
2022/12/25 15:38:36;;;;;;;;;;;8.70;99.90;;;;;;4982199;28;19981;-74
2022/12/25 15:41:02;;;;;;;;;;;8.60;99.90;;;;;;4982246;28;19922;-74
2022/12/25 15:43:28;;;;;;;;;;;8.70;99.90;;;;;;4981500;28;19921;-74
2022/12/25 15:45:53;;;;;;;;;;;8.70;99.90;;;;;;4983658;28;19926;-74
2022/12/25 15:48:19;;;;;;;;;;;8.60;99.90;;;;;;4982208;28;19929;-74
2022/12/25 15:50:45;;;;;;;;;;;8.60;99.90;;;;;;4982027;28;19922;-74
2022/12/25 15:53:11;;;;;;;;;;;8.60;99.90;;;;;;4983170;28;20065;-73
2022/12/25 15:55:37;;;;;;;;;;;9.00;99.90;;;;;;4981933;28;20016;-73
2022/12/25 15:58:03;;;;;;;;;;;9.40;99.90;;;;;;4980588;28;19922;-73
2022/12/25 16:00:28;;;;;;;;;;;8.60;99.90;;;;;;4983897;28;19937;-73
2022/12/25 16:02:54;;;;;;;;;;;8.60;99.90;;;;;;4981246;28;19932;-74
2022/12/25 16:05:20;;;;;;;;;;;9.00;99.90;;;;;;4981792;28;19922;-74
2022/12/25 16:07:45;;;;;;;;;;;8.60;99.90;;;;;;4982743;28;19971;-74
2022/12/25 16:10:16;;;;;;;;;;;8.60;99.90;;;;;;4982382;28;20065;-74
2022/12/25 16:12:42;;;;;;;;;;;8.50;99.90;;;;;;4984050;28;19921;-74
2022/12/25 16:15:09;;;;;;;;;;;8.90;99.90;;;;;;4981556;28;19922;-74
2022/12/25 16:17:34;;;;;;;;;;;8.60;99.90;;;;;;4980974;28;19930;-74
2022/12/25 16:20:00;;;;;;;;;;;8.50;99.90;;;;;;4977393;28;20262;-74